Riverside, Massachusetts
Current Conditions -  °F | °C
As of 10:54 AM on Tuesday 21 Oct 2014 (Local Time) from KBOS Reporting Station
Overcast Overcast  
Wind Chill: 59°   Ceiling: 11000
Heat Index: 59°   Visibility: 10mi
Dew Point: 53°   Wind: 7mph
Humidity: 81%   Direction: 110°ESE
Pressure: 29.96"   Gusts: NA
Location:  42.3527°N, 71.1872°W
Report Text: KBOS 211454Z 11006KT 10SM FEW015 SCT050 BKN110 OVC250 15/12 A2996 RMK AO2 SLP146 T01500117 58003
Loading
Personal Weather Stations






























Interactive Weather Map
Tropical Storm Tracking
New forecast layout! Learn more

10-Day Weather Forecast

Advertisements
Track Severe Weather on mobile